PWSweather.com
Personal Weather Stations
Station Observations
CANDIOTINO
Barrio Candioti Norte, Santa FeAR 3000

Barrio Candioti NorteSanta FeAR 3000

Lat: -31.632778, Lon: -60.695556

Elevation: 69

Station Type: WH-1081

http://www.eltiempoensantafe.com.ar

High Low Average
Temperature 57.6°F14.2°F 52.5°F11.4°F 55.8°F13.2°F
Dew Point 56.2°F13.4°F 51.1°F10.6°F 54.2°F12.3°F
Winds 6.9 mph -11.1 mph - Calm Calm 2.2 mph 3.5 mph
Wind Gusts 14.5 mph23.3 mph 0.7 mph1.1 mph 6.3 mph10.1 mph
Humidity 97% 88% 94%
Pressure 29.88 in1011.90 in 29.67 in1004.70 in -
Precipitation 0.37 in9.40 in - -
Hour Temp Dew Point Humidity Winds Wind Gusts Pressure Precip Precip Rate Daily Precip Total
12:00 AM 57.0°F13.9°C 53.5°F11.9°C 88% 1.6 mph S2.6 kmh S 2.2 mph3.5 kmh 29.88 in1011.9 mb 0.05 in1.3 mm 0.00 in0.0 mm 0.05 in1.3 mm
12:15 AM 56.7°F13.7°C 53.5°F11.9°C 89% 0.7 mph S1.1 kmh S 3.1 mph5.0 kmh 29.88 in1011.9 mb 0.06 in1.5 mm 0.04 in1.0 mm 0.01 in0.3 mm
12:30 AM 56.7°F13.7°C 53.8°F12.1°C 90% Calm Calm 2.2 mph3.5 kmh 29.87 in1011.5 mb 0.04 in1.0 mm 0.00 in0.0 mm 0.01 in0.3 mm
12:45 AM 56.5°F13.6°C 53.6°F12.0°C 90% Calm Calm 0.7 mph1.1 kmh 29.87 in1011.5 mb 0.02 in0.5 mm 0.00 in0.0 mm 0.02 in0.5 mm
01:00 AM 56.3°F13.5°C 53.7°F12.1°C 91% 1.6 mph WSW2.6 kmh WSW 3.1 mph5.0 kmh 29.88 in1011.9 mb 0.02 in0.5 mm 0.00 in0.0 mm 0.02 in0.5 mm
01:15 AM 56.1°F13.4°C 53.5°F11.9°C 91% 0.7 mph WSW1.1 kmh WSW 3.8 mph6.1 kmh 29.87 in1011.5 mb 0.01 in0.3 mm 0.00 in0.0 mm 0.02 in0.5 mm
01:30 AM 56.3°F13.5°C 54.0°F12.2°C 92% Calm Calm 1.6 mph2.6 kmh 29.87 in1011.5 mb 0.02 in0.5 mm 0.04 in1.0 mm 0.04 in1.0 mm
01:45 AM 56.1°F13.4°C 53.8°F12.1°C 92% 0.7 mph W1.1 kmh W 2.2 mph3.5 kmh 29.87 in1011.5 mb 0.01 in0.3 mm 0.00 in0.0 mm 0.04 in1.0 mm
02:00 AM 55.9°F13.3°C 53.7°F12.1°C 92% 0.7 mph WSW1.1 kmh WSW 3.1 mph5.0 kmh 29.87 in1011.5 mb 0.01 in0.3 mm 0.00 in0.0 mm 0.04 in1.0 mm
02:15 AM 55.9°F13.3°C 54.0°F12.2°C 93% 0.7 mph SW1.1 kmh SW 3.1 mph5.0 kmh 29.87 in1011.5 mb 0.01 in0.3 mm 0.00 in0.0 mm 0.04 in1.0 mm
02:30 AM 55.9°F13.3°C 54.0°F12.2°C 93% Calm Calm 3.8 mph6.1 kmh 29.87 in1011.5 mb 0.00 in0.0 mm 0.00 in0.0 mm 0.04 in1.0 mm
02:45 AM 55.9°F13.3°C 54.2°F12.3°C 94% 0.7 mph W1.1 kmh W 3.1 mph5.0 kmh 29.85 in1010.8 mb 0.00 in0.0 mm 0.00 in0.0 mm 0.04 in1.0 mm
03:00 AM 55.9°F13.3°C 54.2°F12.3°C 94% Calm Calm 3.1 mph5.0 kmh 29.86 in1011.2 mb 0.00 in0.0 mm 0.00 in0.0 mm 0.04 in1.0 mm
03:15 AM 55.9°F13.3°C 54.2°F12.3°C 94% 3.1 mph S5.0 kmh S 3.8 mph6.1 kmh 29.84 in1010.5 mb 0.00 in0.0 mm 0.00 in0.0 mm 0.04 in1.0 mm
03:30 AM 55.8°F13.2°C 54.1°F12.3°C 94% 3.8 mph SSE6.1 kmh SSE 5.4 mph8.7 kmh 29.83 in1010.2 mb 0.00 in0.0 mm 0.00 in0.0 mm 0.04 in1.0 mm
03:45 AM 55.6°F13.1°C 54.2°F12.3°C 95% 3.8 mph S6.1 kmh S 6.0 mph9.7 kmh 29.83 in1010.2 mb 0.00 in0.0 mm 0.00 in0.0 mm 0.04 in1.0 mm
04:00 AM 55.4°F13.0°C 54.0°F12.2°C 95% 3.1 mph S5.0 kmh S 5.4 mph8.7 kmh 29.82 in1009.8 mb 0.00 in0.0 mm 0.00 in0.0 mm 0.04 in1.0 mm
04:15 AM 55.2°F12.9°C 53.8°F12.1°C 95% 5.4 mph S8.7 kmh S 8.3 mph13.4 kmh 29.80 in1009.1 mb 0.00 in0.0 mm 0.00 in0.0 mm 0.04 in1.0 mm
04:30 AM 55.2°F12.9°C 53.8°F12.1°C 95% 6.0 mph S9.7 kmh S 9.2 mph14.8 kmh 29.79 in1008.8 mb 0.00 in0.0 mm 0.00 in0.0 mm 0.04 in1.0 mm
04:45 AM 55.0°F12.8°C 53.6°F12.0°C 95% 6.9 mph S11.1 kmh S 9.2 mph14.8 kmh 29.77 in1008.1 mb 0.00 in0.0 mm 0.00 in0.0 mm 0.04 in1.0 mm
05:00 AM 55.0°F12.8°C 53.9°F12.2°C 96% 2.2 mph S3.5 kmh S 8.3 mph13.4 kmh 29.79 in1008.8 mb 0.00 in0.0 mm 0.00 in0.0 mm 0.04 in1.0 mm
05:15 AM 55.0°F12.8°C 53.9°F12.2°C 96% 2.2 mph S3.5 kmh S 6.0 mph9.7 kmh 29.79 in1008.8 mb 0.00 in0.0 mm 0.00 in0.0 mm 0.04 in1.0 mm
05:30 AM 55.0°F12.8°C 53.9°F12.2°C 96% 1.6 mph S2.6 kmh S 6.9 mph11.1 kmh 29.79 in1008.8 mb 0.00 in0.0 mm 0.00 in0.0 mm 0.04 in1.0 mm
05:45 AM 55.0°F12.8°C 53.9°F12.2°C 96% Calm Calm 5.4 mph8.7 kmh 29.79 in1008.8 mb 0.00 in0.0 mm 0.00 in0.0 mm 0.04 in1.0 mm
06:00 AM 55.0°F12.8°C 53.9°F12.2°C 96% 2.2 mph S3.5 kmh S 4.5 mph7.2 kmh 29.79 in1008.8 mb 0.00 in0.0 mm 0.00 in0.0 mm 0.04 in1.0 mm
06:15 AM 55.0°F12.8°C 53.9°F12.2°C 96% 1.6 mph SE2.6 kmh SE 3.8 mph6.1 kmh 29.80 in1009.1 mb 0.00 in0.0 mm 0.00 in0.0 mm 0.04 in1.0 mm
06:30 AM 55.0°F12.8°C 54.2°F12.3°C 97% 0.7 mph SSE1.1 kmh SSE 3.8 mph6.1 kmh 29.80 in1009.1 mb 0.00 in0.0 mm 0.00 in0.0 mm 0.04 in1.0 mm
06:45 AM 55.0°F12.8°C 54.2°F12.3°C 97% 1.6 mph S2.6 kmh S 3.1 mph5.0 kmh 29.81 in1009.5 mb 0.00 in0.0 mm 0.00 in0.0 mm 0.04 in1.0 mm
07:00 AM 55.2°F12.9°C 54.4°F12.4°C 97% 0.7 mph SE1.1 kmh SE 3.1 mph5.0 kmh 29.81 in1009.5 mb 0.00 in0.0 mm 0.00 in0.0 mm 0.04 in1.0 mm
07:15 AM 55.2°F12.9°C 54.4°F12.4°C 97% 1.6 mph SE2.6 kmh SE 3.1 mph5.0 kmh 29.82 in1009.8 mb 0.00 in0.0 mm 0.00 in0.0 mm 0.04 in1.0 mm
07:30 AM 55.2°F12.9°C 54.4°F12.4°C 97% Calm Calm 6.0 mph9.7 kmh 29.82 in1009.8 mb 0.00 in0.0 mm 0.00 in0.0 mm 0.04 in1.0 mm
07:45 AM 55.2°F12.9°C 54.4°F12.4°C 97% 1.6 mph SE2.6 kmh SE 4.5 mph7.2 kmh 29.82 in1009.8 mb 0.00 in0.0 mm 0.00 in0.0 mm 0.04 in1.0 mm
08:00 AM 55.2°F12.9°C 54.4°F12.4°C 97% 2.2 mph ESE3.5 kmh ESE 4.5 mph7.2 kmh 29.81 in1009.5 mb 0.00 in0.0 mm 0.00 in0.0 mm 0.04 in1.0 mm
08:15 AM 55.2°F12.9°C 54.4°F12.4°C 97% 1.6 mph SE2.6 kmh SE 6.0 mph9.7 kmh 29.81 in1009.5 mb 0.00 in0.0 mm 0.00 in0.0 mm 0.04 in1.0 mm
08:30 AM 55.2°F12.9°C 54.4°F12.4°C 97% Calm Calm 4.5 mph7.2 kmh 29.82 in1009.8 mb 0.00 in0.0 mm 0.00 in0.0 mm 0.04 in1.0 mm
08:45 AM 55.2°F12.9°C 54.4°F12.4°C 97% Calm Calm 3.1 mph5.0 kmh 29.83 in1010.2 mb 0.00 in0.0 mm 0.00 in0.0 mm 0.04 in1.0 mm
09:00 AM 55.6°F13.1°C 54.8°F12.7°C 97% 1.6 mph SSE2.6 kmh SSE 3.8 mph6.1 kmh 29.81 in1009.5 mb 0.00 in0.0 mm 0.00 in0.0 mm 0.04 in1.0 mm
09:15 AM 55.6°F13.1°C 54.8°F12.7°C 97% 1.6 mph ESE2.6 kmh ESE 6.0 mph9.7 kmh 29.82 in1009.8 mb 0.00 in0.0 mm 0.00 in0.0 mm 0.04 in1.0 mm
09:30 AM 55.8°F13.2°C 54.9°F12.7°C 97% 1.6 mph E2.6 kmh E 4.5 mph7.2 kmh 29.82 in1009.8 mb 0.00 in0.0 mm 0.00 in0.0 mm 0.04 in1.0 mm
09:45 AM 56.1°F13.4°C 55.3°F12.9°C 97% 3.1 mph SE5.0 kmh SE 5.4 mph8.7 kmh 29.83 in1010.2 mb 0.00 in0.0 mm 0.00 in0.0 mm 0.04 in1.0 mm
10:00 AM 55.9°F13.3°C 55.1°F12.8°C 97% 0.7 mph S1.1 kmh S 3.8 mph6.1 kmh 29.83 in1010.2 mb 0.00 in0.0 mm 0.00 in0.0 mm 0.04 in1.0 mm
10:15 AM 56.1°F13.4°C 55.3°F12.9°C 97% 1.6 mph SE2.6 kmh SE 4.5 mph7.2 kmh 29.82 in1009.8 mb 0.00 in0.0 mm 0.00 in0.0 mm 0.04 in1.0 mm
10:30 AM 56.7°F13.7°C 55.8°F13.2°C 97% 3.1 mph E5.0 kmh E 4.5 mph7.2 kmh 29.82 in1009.8 mb 0.00 in0.0 mm 0.00 in0.0 mm 0.04 in1.0 mm
10:45 AM 56.7°F13.7°C 55.8°F13.2°C 97% 1.6 mph SW2.6 kmh SW 3.8 mph6.1 kmh 29.82 in1009.8 mb 0.00 in0.0 mm 0.00 in0.0 mm 0.04 in1.0 mm
11:00 AM 57.0°F13.9°C 56.2°F13.4°C 97% 1.6 mph S2.6 kmh S 3.1 mph5.0 kmh 29.82 in1009.8 mb 0.00 in0.0 mm 0.00 in0.0 mm 0.04 in1.0 mm
11:15 AM 56.8°F13.8°C 55.7°F13.2°C 96% 0.7 mph SW1.1 kmh SW 4.5 mph7.2 kmh 29.83 in1010.2 mb 0.00 in0.0 mm 0.00 in0.0 mm 0.04 in1.0 mm
11:30 AM 56.7°F13.7°C 55.5°F13.1°C 96% 3.1 mph WSW5.0 kmh WSW 3.8 mph6.1 kmh 29.82 in1009.8 mb 0.00 in0.0 mm 0.00 in0.0 mm 0.04 in1.0 mm
11:45 AM 57.0°F13.9°C 55.9°F13.3°C 96% Calm Calm 5.4 mph8.7 kmh 29.80 in1009.1 mb 0.00 in0.0 mm 0.00 in0.0 mm 0.04 in1.0 mm
12:00 PM 57.4°F14.1°C 56.0°F13.3°C 95% 2.2 mph W3.5 kmh W 3.8 mph6.1 kmh 29.80 in1009.1 mb 0.00 in0.0 mm 0.00 in0.0 mm 0.04 in1.0 mm
12:15 PM 57.6°F14.2°C 56.1°F13.4°C 95% 3.8 mph W6.1 kmh W 4.5 mph7.2 kmh 29.79 in1008.8 mb 0.00 in0.0 mm 0.00 in0.0 mm 0.04 in1.0 mm
12:30 PM 57.4°F14.1°C 55.7°F13.2°C 94% 3.1 mph S5.0 kmh S 6.0 mph9.7 kmh 29.79 in1008.8 mb 0.00 in0.0 mm 0.00 in0.0 mm 0.04 in1.0 mm
12:45 PM 57.0°F13.9°C 55.6°F13.1°C 95% 4.5 mph S7.2 kmh S 6.0 mph9.7 kmh 29.79 in1008.8 mb 0.00 in0.0 mm 0.00 in0.0 mm 0.04 in1.0 mm
01:00 PM 56.7°F13.7°C 55.3°F12.9°C 95% 0.7 mph SW1.1 kmh SW 6.0 mph9.7 kmh 29.79 in1008.8 mb 0.00 in0.0 mm 0.00 in0.0 mm 0.04 in1.0 mm
01:15 PM 56.7°F13.7°C 55.3°F12.9°C 95% 2.2 mph SW3.5 kmh SW 6.0 mph9.7 kmh 29.78 in1008.5 mb 0.00 in0.0 mm 0.00 in0.0 mm 0.04 in1.0 mm
01:30 PM 56.5°F13.6°C 55.1°F12.8°C 95% 0.7 mph WSW1.1 kmh WSW 7.6 mph12.2 kmh 29.77 in1008.1 mb 0.00 in0.0 mm 0.00 in0.0 mm 0.04 in1.0 mm
01:45 PM 56.5°F13.6°C 55.1°F12.8°C 95% 2.2 mph WSW3.5 kmh WSW 6.0 mph9.7 kmh 29.77 in1008.1 mb 0.00 in0.0 mm 0.00 in0.0 mm 0.04 in1.0 mm
02:00 PM 56.8°F13.8°C 55.4°F13.0°C 95% Calm Calm 5.4 mph8.7 kmh 29.75 in1007.5 mb 0.00 in0.0 mm 0.00 in0.0 mm 0.04 in1.0 mm
02:15 PM 57.0°F13.9°C 55.6°F13.1°C 95% 2.2 mph S3.5 kmh S 6.9 mph11.1 kmh 29.74 in1007.1 mb 0.00 in0.0 mm 0.00 in0.0 mm 0.04 in1.0 mm
02:30 PM 57.2°F14.0°C 55.5°F13.1°C 94% 1.6 mph S2.6 kmh S 6.9 mph11.1 kmh 29.73 in1006.8 mb 0.00 in0.0 mm 0.00 in0.0 mm 0.04 in1.0 mm
02:45 PM 57.2°F14.0°C 55.2°F12.9°C 93% 2.2 mph SW3.5 kmh SW 6.0 mph9.7 kmh 29.73 in1006.8 mb 0.00 in0.0 mm 0.00 in0.0 mm 0.04 in1.0 mm
03:00 PM 57.2°F14.0°C 54.9°F12.7°C 92% 5.4 mph SW8.7 kmh SW 6.9 mph11.1 kmh 29.72 in1006.4 mb 0.00 in0.0 mm 0.00 in0.0 mm 0.04 in1.0 mm
03:15 PM 57.4°F14.1°C 55.1°F12.8°C 92% Calm Calm 6.9 mph11.1 kmh 29.72 in1006.4 mb 0.00 in0.0 mm 0.00 in0.0 mm 0.04 in1.0 mm
03:30 PM 57.2°F14.0°C 54.6°F12.6°C 91% 2.2 mph SW3.5 kmh SW 5.4 mph8.7 kmh 29.71 in1006.1 mb 0.00 in0.0 mm 0.00 in0.0 mm 0.04 in1.0 mm
03:45 PM 57.4°F14.1°C 54.8°F12.7°C 91% 2.2 mph S3.5 kmh S 5.4 mph8.7 kmh 29.71 in1006.1 mb 0.00 in0.0 mm 0.00 in0.0 mm 0.04 in1.0 mm
04:00 PM 57.4°F14.1°C 54.8°F12.7°C 91% Calm Calm 4.5 mph7.2 kmh 29.70 in1005.8 mb 0.00 in0.0 mm 0.00 in0.0 mm 0.04 in1.0 mm
04:15 PM 57.4°F14.1°C 54.5°F12.5°C 90% 0.7 mph SW1.1 kmh SW 4.5 mph7.2 kmh 29.70 in1005.8 mb 0.00 in0.0 mm 0.00 in0.0 mm 0.04 in1.0 mm
04:30 PM 57.4°F14.1°C 54.5°F12.5°C 90% 0.7 mph SW1.1 kmh SW 3.8 mph6.1 kmh 29.71 in1006.1 mb 0.00 in0.0 mm 0.00 in0.0 mm 0.04 in1.0 mm
04:45 PM 57.2°F14.0°C 54.3°F12.4°C 90% 3.1 mph SW5.0 kmh SW 6.0 mph9.7 kmh 29.69 in1005.4 mb 0.00 in0.0 mm 0.00 in0.0 mm 0.04 in1.0 mm
05:00 PM 57.2°F14.0°C 54.3°F12.4°C 90% 2.2 mph SSW3.5 kmh SSW 6.0 mph9.7 kmh 29.70 in1005.8 mb 0.00 in0.0 mm 0.00 in0.0 mm 0.04 in1.0 mm
05:15 PM 57.2°F14.0°C 54.3°F12.4°C 90% 2.2 mph SW3.5 kmh SW 5.4 mph8.7 kmh 29.70 in1005.8 mb 0.00 in0.0 mm 0.00 in0.0 mm 0.04 in1.0 mm
05:30 PM 57.0°F13.9°C 54.4°F12.4°C 91% 2.2 mph SSW3.5 kmh SSW 7.6 mph12.2 kmh 29.69 in1005.4 mb 0.00 in0.0 mm 0.00 in0.0 mm 0.04 in1.0 mm
05:45 PM 56.8°F13.8°C 54.3°F12.4°C 91% 3.1 mph S5.0 kmh S 7.6 mph12.2 kmh 29.70 in1005.8 mb 0.00 in0.0 mm 0.00 in0.0 mm 0.04 in1.0 mm
06:00 PM 56.7°F13.7°C 54.4°F12.4°C 92% 2.2 mph SSW3.5 kmh SSW 5.4 mph8.7 kmh 29.69 in1005.4 mb 0.00 in0.0 mm 0.00 in0.0 mm 0.04 in1.0 mm
06:15 PM 56.3°F13.5°C 54.0°F12.2°C 92% 1.6 mph SW2.6 kmh SW 9.2 mph14.8 kmh 29.70 in1005.8 mb 0.00 in0.0 mm 0.00 in0.0 mm 0.04 in1.0 mm
06:30 PM 56.3°F13.5°C 54.3°F12.4°C 93% 3.1 mph SSW5.0 kmh SSW 10.7 mph17.2 kmh 29.69 in1005.4 mb 0.00 in0.0 mm 0.00 in0.0 mm 0.04 in1.0 mm
06:45 PM 55.9°F13.3°C 54.0°F12.2°C 93% 6.0 mph S9.7 kmh S 9.8 mph15.8 kmh 29.67 in1004.7 mb 0.00 in0.0 mm 0.00 in0.0 mm 0.04 in1.0 mm
07:00 PM 55.8°F13.2°C 54.1°F12.3°C 94% 3.1 mph SW5.0 kmh SW 8.3 mph13.4 kmh 29.70 in1005.8 mb 0.00 in0.0 mm 0.00 in0.0 mm 0.04 in1.0 mm
07:15 PM 55.6°F13.1°C 53.9°F12.2°C 94% 3.1 mph SW5.0 kmh SW 10.7 mph17.2 kmh 29.72 in1006.4 mb 0.00 in0.0 mm 0.00 in0.0 mm 0.04 in1.0 mm
07:30 PM 55.2°F12.9°C 53.5°F11.9°C 94% 3.1 mph W5.0 kmh W 9.8 mph15.8 kmh 29.72 in1006.4 mb 0.01 in0.3 mm 0.04 in1.0 mm 0.05 in1.3 mm
07:45 PM 55.0°F12.8°C 53.4°F11.9°C 94% 4.5 mph SW7.2 kmh SW 11.4 mph18.3 kmh 29.74 in1007.1 mb 0.01 in0.3 mm 0.00 in0.0 mm 0.05 in1.3 mm
08:00 PM 54.9°F12.7°C 53.5°F11.9°C 95% 2.2 mph WSW3.5 kmh WSW 12.1 mph19.5 kmh 29.75 in1007.5 mb 0.02 in0.5 mm 0.01 in0.3 mm 0.06 in1.5 mm
08:15 PM 54.7°F12.6°C 53.3°F11.8°C 95% 3.1 mph WSW5.0 kmh WSW 9.8 mph15.8 kmh 29.75 in1007.5 mb 0.02 in0.5 mm 0.00 in0.0 mm 0.06 in1.5 mm
08:30 PM 54.7°F12.6°C 53.3°F11.8°C 95% 3.1 mph WSW5.0 kmh WSW 9.2 mph14.8 kmh 29.75 in1007.5 mb 0.01 in0.3 mm 0.00 in0.0 mm 0.06 in1.5 mm
08:45 PM 54.3°F12.4°C 52.9°F11.6°C 95% 1.6 mph SW2.6 kmh SW 11.4 mph18.3 kmh 29.75 in1007.5 mb 0.02 in0.5 mm 0.04 in1.0 mm 0.07 in1.8 mm
09:00 PM 54.1°F12.3°C 52.7°F11.5°C 95% 3.8 mph WSW6.1 kmh WSW 6.9 mph11.1 kmh 29.76 in1007.8 mb 0.01 in0.3 mm 0.00 in0.0 mm 0.07 in1.8 mm
09:15 PM 53.8°F12.1°C 52.4°F11.3°C 95% 2.2 mph SW3.5 kmh SW 9.8 mph15.8 kmh 29.75 in1007.5 mb 0.01 in0.3 mm 0.00 in0.0 mm 0.07 in1.8 mm
09:30 PM 53.8°F12.1°C 52.4°F11.3°C 95% 5.4 mph SW8.7 kmh SW 12.1 mph19.5 kmh 29.75 in1007.5 mb 0.01 in0.3 mm 0.00 in0.0 mm 0.07 in1.8 mm
09:45 PM 53.6°F12.0°C 52.2°F11.2°C 95% 3.8 mph SSW6.1 kmh SSW 7.6 mph12.2 kmh 29.76 in1007.8 mb 0.00 in0.0 mm 0.00 in0.0 mm 0.07 in1.8 mm
10:00 PM 53.4°F11.9°C 52.3°F11.3°C 96% 4.5 mph SW7.2 kmh SW 11.4 mph18.3 kmh 29.77 in1008.1 mb 0.00 in0.0 mm 0.00 in0.0 mm 0.07 in1.8 mm
10:15 PM 53.4°F11.9°C 52.3°F11.3°C 96% 1.6 mph S2.6 kmh S 11.4 mph18.3 kmh 29.76 in1007.8 mb 0.00 in0.0 mm 0.00 in0.0 mm 0.07 in1.8 mm
10:30 PM 53.2°F11.8°C 52.1°F11.2°C 96% 3.1 mph S5.0 kmh S 14.5 mph23.3 kmh 29.76 in1007.8 mb 0.00 in0.0 mm 0.00 in0.0 mm 0.07 in1.8 mm
10:45 PM 53.1°F11.7°C 52.0°F11.1°C 96% 6.9 mph S11.1 kmh S 11.4 mph18.3 kmh 29.78 in1008.5 mb 0.00 in0.0 mm 0.00 in0.0 mm 0.07 in1.8 mm
11:00 PM 52.9°F11.6°C 51.8°F11.0°C 96% 4.5 mph SW7.2 kmh SW 10.7 mph17.2 kmh 29.77 in1008.1 mb 0.00 in0.0 mm 0.00 in0.0 mm 0.07 in1.8 mm
11:15 PM 52.7°F11.5°C 51.6°F10.9°C 96% 4.5 mph SSW7.2 kmh SSW 13.0 mph20.9 kmh 29.77 in1008.1 mb 0.00 in0.0 mm 0.00 in0.0 mm 0.07 in1.8 mm
11:30 PM 52.5°F11.4°C 51.4°F10.8°C 96% 3.1 mph SSW5.0 kmh SSW 8.3 mph13.4 kmh 29.78 in1008.5 mb 0.00 in0.0 mm 0.00 in0.0 mm 0.07 in1.8 mm
11:45 PM 52.5°F11.4°C 51.1°F10.6°C 95% 4.5 mph SSW7.2 kmh SSW 12.1 mph19.5 kmh 29.77 in1008.1 mb 0.00 in0.0 mm 0.00 in0.0 mm 0.07 in1.8 mm